Datos de la estación

Estación Meteorológica de Zafarraya

Provincia: Granada
Código de Estación: 8
Primer día registrado: 07-09-2000
Último día registrado: 07-02-2023

Datos Localización

Latitud: 36º 59' 25'' N
Longitud: 04º 09' 13'' W
Altitud: 892

Coordenadas UTM

X: 397321
Y: 4094420

Fecha de Medida
07-02-2023
Día Juliano
38
Temp. Máxima (ºC)
6.6
Velocidad Viento Media (m/s)
0.6
Hora Temp. Máxima
15:08
Dirección Viento Media (º)
241.9
Temp. Mínima (ºC)
2.3
Radiación (MJ/m2 d)
2.8
Hora Temp. Mínima
22:10
Precipitación (mm)
6.0
Temp. Media (ºC)
5.0
ETo (mm/dia)
0.6
Humedad Relativa Máxima (%)
97.2
Humedad Relativa Mínima (%)
77.4
Precipitación Acumulada (mm)
272.6
Humedad Relativa Media (%)
91.5
ETo Acumulada (mm)
293.2
Temperatura Máxima Humedad Máxima Dirección del Viento
Temperatura Mínima Humedad Mínima Precipitación
Temperatura Media Humedad Media ETo
HH:MM Temperatura Máxima Radiación Marcar Todas
HH:MM Temperatura Mínima Velocidad del Viento
 
Fecha Día Juliano Temp. Máxima (ºC) Hora Temp Máxima Temp. Mínima (ºC) Hora Temp Mínima Temp. Media (ºC) Humedad Relativa Máxima (%) Humedad Relativa Media (%) Humedad Relativa Mínima (%) Velocidad Viento Media (m/s) Dirección Viento Media (º) Radiación (MJ/m2 d) Precipitación (mm) ETo (mm/dia)
07-02-2023 38 6.6 15:08 2.3 22:10 5.0 97.2 91.5 77.4 0.6 241.9 2.8 6.0 0.6
06-02-2023 37 14.0 15:24 -4.2 6:48 4.7 94.2 76.1 42.6 1.1 190.3 14.8 0.4 1.6
05-02-2023 36 16.5 11:16 -5.1 6:42 4.8 82.0 59.0 20.1 0.6 197.5 15.3 0.0 1.5
04-02-2023 35 16.5 15:36 -6.1 7:24 3.5 87.7 62.1 15.0 0.5 110.9 14.9 0.0 1.4
03-02-2023 34 13.4 13:30 -5.5 7:20 3.2 93.3 65.9 23.9 0.7 158.0 14.1 0.2 1.4
02-02-2023 33 11.1 15:06 -5.3 5:36 1.9 91.8 77.9 53.8 0.7 167.4 13.8 0.0 1.1
01-02-2023 32 11.5 12:28 -5.8 7:32 1.9 90.7 70.5 27.4 0.6 167.3 14.0 0.2 1.2
31-01-2023 31 11.9 15:32 -5.4 6:40 2.4 93.5 73.6 33.9 0.5 162.9 13.7 0.0 1.1
30-01-2023 30 8.9 13:58 -2.2 23:20 3.1 97.6 82.0 51.2 0.6 214.9 11.0 0.0 0.9
29-01-2023 29 8.5 13:14 -6.6 6:36 0.6 95.0 80.9 46.0 0.5 214.4 9.4 3.0 0.8
28-01-2023 28 7.7 14:18 -3.7 23:32 1.9 84.1 60.4 40.7 0.9 105.0 9.9 0.0 1.0
27-01-2023 27 8.1 14:08 -3.6 3:48 3.1 86.3 57.5 38.2 2.0 27.8 13.9 0.0 1.5
26-01-2023 26 7.2 10:48 -3.0 7:20 2.4 79.9 59.4 37.0 1.5 328.5 11.1 0.0 1.3
25-01-2023 25 8.4 14:02 -5.3 7:08 1.8 91.8 67.9 41.9 0.9 262.5 11.0 0.2 1.0
24-01-2023 24 7.3 13:06 -4.6 7:22 0.8 91.2 70.0 43.0 0.6 219.7 11.0 0.4 0.9
23-01-2023 23 n/d --:-- n/d --:-- n/d n/d n/d n/d n/d n/d n/d n/d n/d
22-01-2023 22 n/d --:-- n/d --:-- n/d n/d n/d n/d n/d n/d n/d n/d n/d
21-01-2023 21 n/d --:-- n/d --:-- n/d n/d n/d n/d n/d n/d n/d n/d n/d
19-01-2023 19 7.0 15:40 -0.2 8:04 4.4 80.5 61.9 41.5 1.9 40.2 12.8 0.0 1.3
18-01-2023 18 6.1 15:30 n/d 8:15 n/d 83.9 65.8 48.5 3.3 311.6 9.6 3.6 n/d
17-01-2023 17 10.7 14:02 4.3 23:28 7.8 92.9 82.7 64.0 3.6 287.8 4.5 20.0 1.3
16-01-2023 16 11.3 12:22 4.2 5:48 7.2 88.4 66.4 32.6 3.1 314.5 12.1 0.8 2.0
15-01-2023 15 15.0 12:56 -2.3 4:42 6.8 93.3 70.5 41.5 1.5 3.8 12.0 0.2 1.5
14-01-2023 14 14.5 14:42 -2.3 7:34 5.1 96.8 76.6 39.8 0.5 159.3 12.0 0.0 0.9
13-01-2023 13 16.5 14:00 -0.5 4:52 5.9 100.0 76.5 19.9 0.5 80.4 10.8 0.2 1.0
12-01-2023 12 13.7 14:46 1.7 6:50 7.3 96.8 81.5 62.0 0.7 179.1 10.8 0.0 0.9
11-01-2023 11 14.0 13:54 1.3 5:14 7.9 99.6 79.8 56.4 1.4 30.7 10.0 0.2 1.1
10-01-2023 10 18.2 13:34 3.0 7:30 10.1 98.1 74.9 39.3 0.6 281.8 10.3 0.0 1.1
09-01-2023 9 14.9 14:38 9.5 23:40 11.7 98.1 82.2 63.2 2.0 312.8 5.8 7.0 1.2
08-01-2023 8 13.6 10:18 3.0 00:14 10.0 98.2 88.7 68.5 1.2 267.6 2.4 10.4 0.8
07-01-2023 7 15.0 12:28 -2.1 3:46 6.2 100.0 78.7 45.2 0.7 301.2 10.8 0.2 1.0
06-01-2023 6 14.0 15:00 -0.8 7:02 5.2 100.0 85.6 56.8 0.4 195.9 9.8 0.2 0.7
05-01-2023 5 12.4 13:36 1.5 2:44 7.0 100.0 86.8 60.4 0.5 238.3 6.0 0.0 0.7
04-01-2023 4 12.8 12:58 0.2 4:42 5.8 100.0 89.1 65.4 0.5 197.8 8.7 0.2 0.7
03-01-2023 3 15.4 12:54 2.4 7:16 8.2 100.0 83.5 56.4 0.5 185.7 9.5 0.2 0.8
02-01-2023 2 15.6 13:22 2.5 5:22 8.3 88.6 70.7 48.6 0.4 211.7 5.3 0.0 0.8
01-01-2023 1 18.3 13:22 -0.6 7:00 7.2 85.0 55.8 14.8 0.6 200.0 10.7 0.0 1.1
31-12-2022 365 18.7 13:40 -2.9 7:02 5.5 89.2 62.0 11.9 0.4 171.9 9.9 0.0 0.9
30-12-2022 364 17.9 13:24 1.3 7:10 8.2 92.6 63.4 19.1 0.6 295.7 10.3 0.0 1.1
29-12-2022 363 15.7 13:24 -1.5 7:30 7.4 94.4 66.5 35.9 0.9 322.8 10.1 0.2 1.1
28-12-2022 362 17.6 14:02 -0.8 7:34 6.8 97.8 73.8 34.5 0.5 173.2 10.3 0.0 0.9
27-12-2022 361 17.9 12:32 0.8 6:56 7.6 94.5 73.6 34.9 0.5 188.6 10.1 0.2 0.9
26-12-2022 360 19.2 14:38 0.9 6:00 8.0 96.8 72.9 31.5 0.4 173.1 9.5 0.0 0.9
25-12-2022 359 18.5 13:40 2.1 7:10 9.3 89.2 63.4 32.1 0.6 217.1 9.9 0.0 1.0
24-12-2022 358 19.1 13:06 0.9 7:32 9.6 99.0 70.6 37.7 0.7 218.4 9.9 0.0 1.1
23-12-2022 357 21.1 14:16 1.9 7:28 9.7 97.5 76.2 40.1 0.5 235.2 9.9 0.2 1.0
22-12-2022 356 19.3 13:28 5.0 6:54 10.9 88.4 70.5 35.4 0.8 282.6 10.4 0.0 1.2
21-12-2022 355 14.6 11:48 5.2 7:06 10.8 91.4 71.3 53.9 1.6 20.4 8.7 0.0 1.2
20-12-2022 354 16.7 12:26 0.5 5:14 8.2 100.0 78.2 41.0 0.6 201.8 7.7 0.6 0.9
19-12-2022 353 14.2 12:54 1.4 7:38 8.0 96.3 72.7 53.6 0.7 242.2 10.6 0.0 0.8
18-12-2022 352 14.2 14:12 0.3 4:04 7.9 95.7 69.6 50.5 0.8 253.3 10.4 0.0 0.9
17-12-2022 351 12.8 13:10 2.3 --:-- 8.2 98.1 72.2 48.4 1.1 315.2 9.5 0.0 1.0
16-12-2022 350 11.8 14:00 4.6 4:02 8.3 96.4 85.6 70.7 0.8 272.6 3.6 2.8 0.7
15-12-2022 349 10.9 12:54 6.6 20:26 8.3 97.3 83.8 68.7 1.1 232.1 3.2 13.0 0.8
14-12-2022 348 14.4 7:18 7.7 22:54 12.4 100.0 91.2 73.8 1.6 241.7 0.9 25.8 0.8
13-12-2022 347 n/d --:-- n/d --:-- n/d n/d n/d n/d n/d n/d n/d n/d n/d
09-12-2022 343 11.7 4:38 8.1 16:04 10.4 100.0 93.6 76.7 1.7 234.9 0.6 50.6 0.7
08-12-2022 342 11.4 23:14 9.5 4:08 10.6 100.0 86.7 71.4 2.1 203.0 1.5 61.4 0.8
07-12-2022 341 15.2 14:04 0.5 7:04 7.5 99.0 81.7 58.0 0.6 186.7 7.2 0.2 0.8
06-12-2022 340 12.0 14:28 4.1 23:48 9.5 96.7 86.2 72.7 0.9 263.8 4.0 0.6 0.7
05-12-2022 339 14.8 11:56 4.1 1:36 9.3 96.9 81.0 47.7 1.3 161.8 4.0 10.4 1.2
04-12-2022 338 12.7 14:24 4.9 23:38 8.8 93.9 81.6 69.7 0.8 227.1 6.3 0.8 0.8
03-12-2022 337 9.0 14:20 -1.0 2:16 4.8 99.9 92.1 75.7 0.4 211.3 1.9 3.2 0.5
02-12-2022 336 12.6 13:42 -1.8 7:12 4.0 97.1 84.1 47.7 0.4 231.6 6.1 0.8 0.7
01-12-2022 335 10.5 13:04 3.2 1:28 7.1 82.8 75.5 62.6 0.5 216.7 4.2 0.0 0.7
30-11-2022 334 16.4 14:00 -3.1 6:40 5.5 84.0 63.8 32.1 0.5 203.8 10.2 0.0 1.0
29-11-2022 333 16.2 14:04 -2.5 6:46 6.1 83.2 54.4 16.4 0.5 247.9 11.8 0.0 1.0
28-11-2022 332 14.2 14:02 5.0 --:-- 9.6 77.2 50.7 22.6 2.1 48.7 12.4 0.0 2.0
27-11-2022 331 20.8 13:56 -2.4 7:24 8.3 92.6 51.4 7.5 0.8 193.9 11.1 0.2 1.6
26-11-2022 330 18.7 14:48 0.6 23:56 9.0 93.2 73.2 43.4 0.7 179.0 12.2 0.0 1.2
25-11-2022 329 19.5 13:00 3.2 23:50 11.5 93.9 69.4 22.0 1.1 18.0 8.9 0.2 1.7
24-11-2022 328 19.5 15:00 6.3 7:04 12.0 97.2 80.1 50.5 0.8 267.0 10.8 0.0 1.3
23-11-2022 327 15.9 13:22 8.1 23:58 12.6 89.5 74.3 57.2 1.9 297.8 11.6 1.2 1.5
22-11-2022 326 12.5 14:06 6.4 7:44 9.5 89.2 69.5 47.4 2.0 302.9 6.3 0.2 1.4
21-11-2022 325 15.0 11:30 5.1 5:52 10.5 93.2 79.4 55.3 2.0 296.0 8.0 3.8 1.4
20-11-2022 324 16.4 13:44 6.0 4:22 9.9 85.4 63.1 40.3 1.3 41.5 12.7 0.0 1.6
19-11-2022 323 10.0 12:50 5.0 7:08 7.4 73.5 62.1 50.7 2.6 356.7 11.9 0.2 1.7
18-11-2022 322 13.2 --:-- 6.2 23:48 9.8 94.5 75.9 61.3 1.9 332.2 4.0 9.2 1.2
17-11-2022 321 16.4 11:20 12.7 6:18 13.8 93.8 83.7 67.6 1.9 287.6 6.8 6.8 1.3
16-11-2022 320 14.4 21:40 12.4 11:18 13.3 95.7 83.0 72.6 1.7 277.9 2.2 9.8 0.9
15-11-2022 319 17.4 10:30 5.2 3:08 12.7 91.4 74.4 58.6 1.8 283.8 5.9 0.4 1.4
14-11-2022 318 21.0 13:38 1.3 5:52 10.8 95.9 69.0 28.1 0.7 270.4 12.4 0.0 1.5
13-11-2022 317 19.2 13:18 1.3 7:06 9.8 87.6 67.1 45.5 0.7 205.0 12.9 0.0 1.4
12-11-2022 316 21.6 13:10 5.1 7:20 13.2 79.1 50.6 23.9 1.1 231.3 13.6 0.0 2.0
11-11-2022 315 18.0 12:40 2.8 6:12 10.1 94.3 71.7 43.0 0.6 182.1 9.8 0.0 1.3
10-11-2022 314 18.1 11:44 3.2 6:46 10.4 93.6 74.8 48.7 0.6 224.6 11.7 0.0 1.3
09-11-2022 313 17.9 9:34 2.9 6:06 11.0 84.2 68.5 50.6 1.0 313.1 8.7 0.0 1.4
08-11-2022 312 20.1 12:00 5.5 23:54 12.7 85.0 58.5 23.2 0.7 261.7 10.2 0.0 1.6
07-11-2022 311 21.0 13:12 -0.9 6:22 10.4 79.7 52.6 31.9 0.8 221.2 14.8 0.0 1.8
06-11-2022 310 23.2 13:32 -0.1 6:36 10.9 83.3 48.7 8.7 0.7 267.8 14.9 0.0 1.9
05-11-2022 309 20.8 15:58 1.5 6:56 11.1 88.7 66.6 36.9 0.7 177.6 14.6 0.0 1.7
04-11-2022 308 18.3 13:28 9.8 23:56 15.1 78.6 63.7 51.3 1.7 41.6 9.5 0.0 1.9
03-11-2022 307 19.1 13:40 3.7 4:32 12.6 82.6 58.3 22.5 1.2 339.6 8.9 0.0 2.0
02-11-2022 306 21.0 12:40 3.6 6:04 12.2 75.7 59.5 38.5 0.6 212.5 15.2 0.0 1.7
01-11-2022 305 23.6 12:02 6.8 6:52 15.3 70.6 47.8 27.6 0.7 191.6 15.5 0.0 2.0
31-10-2022 304 22.4 18:16 6.4 6:48 15.1 91.9 56.6 19.4 0.8 252.3 7.1 0.0 1.8
30-10-2022 303 22.2 15:46 8.5 1:24 14.8 85.8 67.2 29.6 0.8 195.2 10.8 0.0 1.9
29-10-2022 302 22.1 11:16 6.1 3:40 13.5 94.0 70.6 36.8 0.9 167.7 12.5 0.0 2.0
28-10-2022 301 24.9 13:44 5.0 6:42 14.8 79.3 52.0 25.5 0.7 209.2 14.4 0.0 2.1
27-10-2022 300 27.4 13:06 8.7 5:00 18.0 61.9 35.7 16.4 0.7 211.6 16.1 0.0 2.4
26-10-2022 299 27.9 13:00 9.3 6:22 17.6 62.4 39.9 17.2 0.5 181.2 11.0 0.0 2.0
25-10-2022 298 27.9 11:20 11.5 23:48 19.1 55.2 32.7 13.6 0.9 230.5 15.2 0.0 2.7
24-10-2022 297 25.6 14:18 12.8 23:36 19.5 62.3 36.7 18.5 1.0 215.5 16.3 0.0 2.7
23-10-2022 296 23.7 11:38 13.6 21:28 19.0 60.6 42.4 31.0 1.0 224.0 12.1 0.0 2.4
22-10-2022 295 23.2 14:28 16.2 22:02 19.5 68.1 44.3 33.1 1.0 224.6 8.0 0.0 2.2
21-10-2022 294 23.1 14:10 14.5 22:42 18.5 67.0 49.4 32.9 1.2 204.9 11.2 0.0 2.5
20-10-2022 293 22.8 9:34 16.7 23:58 19.8 57.7 43.2 33.5 0.9 207.1 7.3 0.0 2.1
19-10-2022 292 26.5 11:10 14.2 6:54 21.1 83.7 47.4 27.3 0.9 224.4 13.3 0.2 2.6
18-10-2022 291 26.4 11:56 10.2 1:56 20.1 81.5 50.0 28.6 1.1 228.5 15.2 0.2 2.8
17-10-2022 290 26.0 13:22 10.3 6:16 17.7 88.1 60.9 31.4 0.9 222.2 14.1 0.0 2.6
16-10-2022 289 27.2 14:46 5.8 3:44 16.1 86.7 54.1 24.9 0.8 208.8 9.1 1.8 2.3
15-10-2022 288 24.8 13:08 7.0 6:16 15.5 83.5 56.5 31.5 0.8 215.1 17.5 0.0 2.6
14-10-2022 287 25.2 13:50 6.0 6:28 15.2 95.5 65.0 31.2 0.7 189.4 16.6 0.2 2.5
13-10-2022 286 22.7 11:58 7.9 3:10 14.2 99.3 75.1 38.5 0.9 163.5 16.3 0.0 2.5
12-10-2022 285 21.4 13:32 8.5 6:44 14.1 99.9 83.7 53.6 0.8 187.3 10.7 0.2 1.8
11-10-2022 284 20.1 14:44 11.9 22:36 15.3 96.1 79.7 58.3 0.6 178.7 10.6 1.0 1.7
10-10-2022 283 21.8 13:10 10.0 2:04 15.5 92.6 73.6 48.0 0.7 235.7 12.8 1.6 2.1
09-10-2022 282 21.1 12:54 10.7 1:20 15.5 97.7 76.8 52.6 0.9 192.3 16.4 0.2 2.4
08-10-2022 281 23.1 13:22 8.5 6:18 15.2 88.1 71.9 46.9 0.8 181.3 16.9 0.0 2.6
07-10-2022 280 23.0 11:08 8.8 6:18 15.2 98.2 73.2 39.1 0.8 177.4 17.2 0.2 2.6
06-10-2022 279 21.9 13:20 9.3 6:46 15.5 91.3 77.2 55.1 0.8 221.9 15.5 0.0 2.4
05-10-2022 278 22.7 12:38 7.2 6:26 15.5 86.6 69.5 43.8 1.0 190.7 18.3 0.0 2.8
04-10-2022 277 27.9 13:12 9.5 5:16 18.1 74.1 49.1 21.1 0.8 120.6 18.1 0.0 3.2
03-10-2022 276 27.9 11:42 12.0 3:42 19.2 71.8 46.4 20.0 0.8 292.9 14.3 0.0 3.0
02-10-2022 275 25.1 13:50 3.8 6:02 15.3 88.2 52.4 21.2 0.7 180.0 16.0 0.0 2.7
01-10-2022 274 20.1 12:48 2.9 6:14 11.6 86.3 64.6 37.5 0.9 182.9 20.4 0.0 2.8
30-09-2022 273 20.8 16:12 7.6 23:48 14.5 70.1 51.7 23.0 1.9 34.1 21.3 0.0 3.8
29-09-2022 272 19.8 13:30 11.1 5:06 14.8 86.8 60.3 37.3 1.8 331.1 18.0 5.2 3.2
28-09-2022 271 23.4 14:20 8.3 6:26 17.4 68.4 44.5 29.9 1.5 326.6 21.0 0.0 3.7
27-09-2022 270 22.4 16:32 10.3 4:54 17.2 63.2 40.8 26.3 1.5 318.9 21.0 0.0 3.7
26-09-2022 269 22.1 14:58 5.7 6:14 15.3 82.6 50.8 26.2 1.1 306.3 21.4 0.0 3.3
25-09-2022 268 22.9 12:44 6.4 6:24 15.7 77.4 50.5 26.1 0.9 214.8 19.6 0.0 3.1
24-09-2022 267 26.9 14:00 8.7 5:52 18.7 85.1 50.9 22.3 1.1 274.5 18.2 0.0 3.6
23-09-2022 266 24.4 13:22 9.6 5:48 17.5 88.6 65.7 46.1 0.9 196.4 20.5 0.0 3.3
22-09-2022 265 24.9 10:50 9.9 6:14 17.7 89.8 67.8 40.4 0.9 221.9 16.6 0.0 3.0
21-09-2022 264 26.2 14:42 13.5 23:36 19.0 83.7 63.2 41.8 0.8 217.7 19.2 0.4 3.4
20-09-2022 263 25.7 12:42 11.6 5:22 18.5 90.7 70.4 45.9 1.0 178.9 19.6 0.0 3.4
19-09-2022 262 24.3 13:56 14.2 23:56 18.8 91.4 73.4 51.5 1.1 185.7 19.3 0.0 3.4
18-09-2022 261 26.2 13:12 10.5 6:08 18.5 89.8 72.2 43.0 1.0 162.2 19.7 0.0 3.5
17-09-2022 260 26.1 12:46 10.0 5:54 18.2 84.2 63.2 37.9 0.8 179.7 22.0 0.0 3.6
16-09-2022 259 26.1 12:32 11.7 4:54 19.0 88.9 60.7 38.9 0.9 186.9 22.4 0.0 3.8
15-09-2022 258 24.2 15:46 10.0 6:12 18.2 90.2 64.0 40.9 1.3 305.8 21.8 0.0 3.8
14-09-2022 257 23.1 13:20 14.3 23:58 18.7 86.2 62.7 40.2 0.8 255.4 13.1 0.0 2.7
13-09-2022 256 22.8 00:06 16.5 5:34 19.5 88.3 66.9 47.2 1.0 219.7 7.8 4.2 2.1
12-09-2022 255 30.2 11:28 18.1 6:18 24.8 60.8 39.4 26.3 1.2 204.8 13.3 0.2 3.7
11-09-2022 254 31.3 16:04 12.8 6:22 22.7 66.9 44.5 25.8 0.8 199.5 21.1 0.0 4.1
10-09-2022 253 29.6 13:00 11.6 5:32 21.2 73.9 48.7 27.5 0.8 173.2 23.3 0.0 4.2
09-09-2022 252 30.9 14:42 11.4 5:38 22.3 72.9 46.4 28.0 0.8 189.4 23.2 0.0 4.3
08-09-2022 251 31.2 15:18 8.3 5:38 21.6 64.3 36.9 15.6 1.0 251.3 23.9 0.0 4.7
07-09-2022 250 29.6 11:58 9.7 6:20 21.1 67.6 38.5 21.4 1.0 299.6 22.4 0.0 4.4
06-09-2022 249 30.2 13:22 8.3 5:52 20.8 66.5 38.4 13.9 0.9 204.2 24.4 0.0 4.5
05-09-2022 248 29.3 16:12 8.0 6:08 20.0 71.0 39.8 20.7 0.9 244.7 24.1 0.0 4.4
04-09-2022 247 29.3 14:08 8.9 5:56 20.2 73.1 40.6 12.6 0.9 221.0 24.7 0.0 4.5
03-09-2022 246 28.3 11:14 14.1 23:46 22.3 75.0 39.1 19.5 1.2 252.7 23.7 0.6 4.7
02-09-2022 245 30.4 16:06 15.2 00:32 23.7 53.2 31.7 17.5 1.2 270.5 20.2 0.0 4.7
01-09-2022 244 30.2 10:52 11.4 5:12 21.6 83.6 44.2 10.2 0.8 255.2 16.9 0.0 3.8
31-08-2022 243 29.8 14:52 16.7 23:34 23.3 89.9 57.3 36.8 1.0 195.2 22.3 0.0 4.5
30-08-2022 242 33.5 12:12 18.6 --:-- 25.3 83.3 46.6 19.2 0.8 266.6 13.8 0.8 3.7
29-08-2022 241 28.3 13:22 18.3 23:56 22.7 77.6 57.3 32.9 1.1 212.6 11.4 1.0 3.3
28-08-2022 240 28.1 13:30 14.4 5:44 22.0 88.3 66.2 46.5 1.0 182.5 24.2 0.0 4.5
27-08-2022 239 27.3 14:14 12.5 6:20 20.5 87.5 69.6 42.6 1.0 177.9 25.2 0.0 4.6
26-08-2022 238 27.7 13:14 10.9 5:50 20.1 77.3 59.2 43.0 1.0 184.2 25.8 0.0 4.7
25-08-2022 237 30.6 16:14 12.9 6:06 22.6 81.9 50.8 30.5 1.1 214.4 25.9 0.0 5.1
24-08-2022 236 30.1 13:46 11.8 5:18 21.9 82.5 52.8 29.3 0.9 203.3 19.9 0.0 4.2
23-08-2022 235 28.5 14:30 12.0 6:08 21.0 73.0 52.4 33.9 0.9 182.8 26.0 0.0 4.8
22-08-2022 234 34.3 11:24 12.2 5:36 23.8 53.8 33.5 11.3 0.9 183.3 26.5 0.0 5.4
21-08-2022 233 35.2 14:34 9.4 5:42 24.0 73.3 34.7 9.4 0.9 237.3 27.0 0.0 5.5
20-08-2022 232 28.6 13:54 10.1 5:38 20.3 71.2 43.9 22.2 0.9 186.1 27.1 0.0 4.9
19-08-2022 231 27.3 12:28 9.5 5:58 19.6 75.8 47.6 27.7 0.9 195.1 27.0 0.0 4.8
18-08-2022 230 28.3 11:34 11.8 6:06 21.1 60.5 40.6 21.1 1.1 215.9 27.0 0.0 5.2
17-08-2022 229 27.4 14:08 13.0 6:12 21.8 63.7 36.8 15.3 1.4 313.6 27.7 0.0 5.5
16-08-2022 228 29.2 14:36 11.4 6:14 21.6 66.2 40.4 20.7 1.3 302.7 27.5 0.0 5.5
15-08-2022 227 30.7 13:26 13.9 5:26 23.4 59.5 34.6 14.5 1.3 283.8 27.8 0.0 5.8
14-08-2022 226 33.1 14:06 19.7 21:40 26.1 60.2 35.4 18.1 1.1 280.4 21.5 0.0 5.2
13-08-2022 225 34.9 14:30 18.7 5:42 27.2 73.3 40.1 21.4 1.0 122.0 21.1 0.2 5.1
12-08-2022 224 33.9 15:28 16.5 5:40 25.7 81.9 51.4 23.6 0.8 200.7 23.4 0.2 5.1
11-08-2022 223 30.4 14:58 13.6 5:20 22.6 87.2 61.5 36.4 0.9 173.6 26.1 0.0 5.1
10-08-2022 222 29.6 12:20 15.0 5:24 22.7 88.5 62.7 36.4 1.1 173.5 24.2 0.0 5.0
09-08-2022 221 28.1 16:06 13.3 4:22 21.7 86.5 66.8 45.9 1.0 172.4 22.5 0.0 4.5
08-08-2022 220 29.2 14:14 10.9 5:46 21.5 82.9 54.1 19.3 0.8 183.9 26.6 0.0 5.0
07-08-2022 219 29.2 15:04 9.2 6:00 20.9 84.9 56.3 35.2 0.9 182.5 27.0 0.0 5.1
06-08-2022 218 29.1 17:38 10.8 5:42 20.9 87.5 59.1 30.9 0.8 191.5 26.9 0.0 5.0
05-08-2022 217 29.8 11:40 11.8 5:30 21.9 81.6 55.0 27.9 0.9 183.5 27.1 0.0 5.2
04-08-2022 216 30.0 15:12 13.9 5:02 23.0 71.5 46.9 30.8 0.9 202.7 27.0 0.0 5.3
03-08-2022 215 31.7 15:34 15.0 00:26 25.4 66.4 37.5 23.8 1.0 236.2 27.0 0.0 5.6
02-08-2022 214 30.1 15:34 15.2 5:04 23.4 85.4 50.7 28.7 0.9 197.7 27.7 0.0 5.4
01-08-2022 213 28.9 13:26 16.3 5:40 23.5 88.1 65.4 36.7 1.1 191.7 27.4 0.0 5.4
31-07-2022 212 33.0 16:34 14.4 4:30 23.6 91.6 65.9 32.6 0.9 164.4 27.0 0.0 5.6
30-07-2022 211 32.9 12:02 17.3 23:42 23.7 86.8 58.6 23.1 1.2 127.6 22.7 0.0 5.4
29-07-2022 210 32.9 16:46 13.6 5:10 24.4 65.1 40.6 16.6 0.9 185.8 27.1 0.0 5.6
28-07-2022 209 33.4 13:44 11.9 5:10 24.0 66.1 39.7 19.9 0.9 202.9 28.0 0.0 5.8
27-07-2022 208 31.0 9:44 15.7 5:36 24.9 56.7 40.3 22.0 1.1 217.4 27.8 0.0 5.8
26-07-2022 207 35.4 12:28 14.6 4:54 27.0 45.8 23.0 7.3 1.2 255.9 28.2 0.0 6.4
25-07-2022 206 37.9 14:54 18.7 4:08 29.8 41.8 20.2 10.0 0.9 256.8 23.3 0.0 5.6
24-07-2022 205 37.0 16:04 13.2 5:30 26.9 64.8 33.7 8.5 0.8 205.9 25.8 0.0 5.7
23-07-2022 204 34.4 10:54 13.7 4:54 25.0 69.8 40.6 18.5 0.9 175.0 27.9 0.0 5.9
22-07-2022 203 32.8 12:44 13.4 5:16 23.8 86.2 51.2 24.8 0.9 176.3 27.3 0.0 5.7
21-07-2022 202 29.0 15:20 14.1 5:18 22.5 84.0 61.3 42.4 0.9 189.4 28.2 0.0 5.4
20-07-2022 201 32.3 13:22 12.0 5:00 23.4 67.5 42.7 19.1 0.9 178.3 28.7 0.0 5.8
19-07-2022 200 31.5 15:20 13.4 5:02 23.5 78.2 46.0 22.2 0.9 176.1 28.3 0.0 5.7
18-07-2022 199 31.0 15:06 13.2 4:14 23.8 72.2 43.9 25.2 0.9 172.6 27.8 0.0 5.6
17-07-2022 198 30.8 15:32 11.2 5:30 22.3 73.5 44.6 26.7 0.9 180.7 28.7 0.0 5.6
16-07-2022 197 30.2 12:42 12.5 5:16 22.5 67.1 41.5 25.1 1.0 173.8 28.6 0.0 5.7
15-07-2022 196 30.4 13:04 15.1 5:42 24.1 59.5 35.5 23.6 0.9 197.3 28.0 0.0 5.6
14-07-2022 195 32.5 11:28 12.8 5:34 24.8 64.5 33.6 16.6 0.8 213.8 28.3 0.0 5.7
13-07-2022 194 31.3 13:58 12.4 5:04 23.6 80.6 41.7 15.2 0.9 184.3 28.1 0.0 5.7
12-07-2022 193 29.7 13:52 11.0 5:32 21.6 75.6 50.7 24.9 1.0 164.6 28.7 0.0 5.6
11-07-2022 192 30.6 13:56 12.7 5:18 22.5 69.2 44.9 20.3 0.8 177.3 29.0 0.0 5.6
10-07-2022 191 29.5 11:06 12.8 5:14 22.4 70.8 45.1 27.5 0.9 181.3 28.9 0.0 5.6
09-07-2022 190 28.0 12:40 12.8 5:34 22.0 83.4 48.7 26.8 0.9 186.3 29.1 0.0 5.5
08-07-2022 189 28.0 12:58 15.5 5:16 22.7 87.5 59.1 42.8 1.2 208.7 28.6 0.0 5.6
07-07-2022 188 27.6 17:56 11.2 5:22 20.7 90.4 63.1 41.3 1.1 172.4 28.9 0.0 5.4
06-07-2022 187 32.0 16:44 13.6 5:14 23.5 77.7 43.1 10.5 1.0 230.6 29.7 0.0 6.1
05-07-2022 186 32.3 13:12 16.8 4:38 24.4 61.3 39.5 22.8 1.0 193.7 26.1 0.0 5.7
04-07-2022 185 33.4 16:56 13.7 5:28 24.7 90.3 43.6 16.0 0.9 192.6 27.3 0.0 5.8
03-07-2022 184 29.4 15:20 18.0 3:24 23.2 91.9 66.3 42.8 1.1 161.1 26.9 1.2 5.5
02-07-2022 183 26.6 13:56 12.2 4:56 20.1 91.6 70.1 48.0 1.0 171.0 27.5 0.0 5.1
01-07-2022 182 26.5 10:42 10.4 5:10 19.5 83.3 56.1 29.1 1.0 174.8 29.2 0.0 5.4
30-06-2022 181 30.7 15:18 11.1 5:10 22.1 62.0 36.0 17.9 0.9 263.5 29.8 0.0 5.8
29-06-2022 180 28.2 14:28 9.9 5:10 20.8 80.3 44.5 21.7 1.0 193.8 29.5 0.0 5.6
28-06-2022 179 25.8 14:12 7.9 5:28 18.7 64.8 47.5 29.5 0.9 183.4 30.5 0.0 5.4
27-06-2022 178 26.3 14:20 10.3 5:24 20.2 53.1 28.9 15.3 1.2 322.5 30.9 0.0 5.8
26-06-2022 177 28.2 14:20 9.1 5:20 20.1 69.3 37.9 22.3 1.0 281.4 30.1 0.0 5.7
25-06-2022 176 28.0 15:46 9.3 5:36 20.2 76.8 43.0 25.1 1.0 270.9 30.3 0.0 5.7
24-06-2022 175 26.8 15:12 10.3 4:20 19.7 78.3 47.5 27.0 1.2 287.8 30.3 0.0 5.7
23-06-2022 174 24.1 15:26 7.5 5:10 17.4 84.1 54.3 33.1 1.2 245.8 30.2 0.0 5.3
22-06-2022 173 23.9 14:08 8.4 5:02 17.3 66.3 45.4 30.0 1.3 286.2 30.7 0.0 5.4
21-06-2022 172 25.8 15:02 12.2 4:22 19.2 63.6 43.7 16.7 1.0 240.2 14.9 0.4 3.8
20-06-2022 171 29.4 12:10 15.0 23:56 23.5 54.2 33.6 20.7 1.2 245.9 28.4 0.0 6.0
19-06-2022 170 29.9 12:58 16.3 2:34 23.5 54.5 34.9 19.7 1.1 230.7 29.6 0.0 6.1
18-06-2022 169 32.1 12:34 15.7 5:04 25.0 58.4 35.8 16.0 1.0 194.6 28.6 0.0 6.0
17-06-2022 168 33.6 14:00 18.7 23:42 26.5 55.9 36.1 22.4 0.8 180.1 26.9 0.0 5.8
16-06-2022 167 34.4 15:06 17.3 3:28 26.6 57.2 37.4 21.2 0.7 167.3 27.3 0.0 5.7
15-06-2022 166 31.9 10:10 18.4 2:22 25.5 45.3 30.5 18.8 0.8 213.6 24.8 0.0 5.4
14-06-2022 165 35.1 14:26 13.5 4:54 25.8 55.9 28.9 10.6 0.9 202.0 29.4 0.0 6.2
13-06-2022 164 34.4 11:18 13.1 4:58 24.8 60.4 29.6 11.0 0.9 193.3 28.7 0.0 6.1
12-06-2022 163 31.6 15:08 12.4 5:18 22.5 67.0 40.6 19.1 0.8 188.5 29.2 0.0 5.8
11-06-2022 162 28.6 14:18 11.3 4:22 21.2 79.7 44.6 26.0 0.9 206.5 29.8 0.0 5.6
10-06-2022 161 27.0 13:52 13.8 4:22 20.9 75.1 52.8 38.5 1.0 194.8 29.5 0.0 5.5
09-06-2022 160 28.6 10:52 14.2 5:40 22.7 70.8 47.7 32.1 1.0 200.7 29.9 0.0 5.8
08-06-2022 159 29.8 13:08 14.4 5:04 24.3 61.9 37.4 19.3 1.2 330.9 28.6 0.0 6.0
07-06-2022 158 32.6 14:46 9.2 5:06 22.9 64.7 33.6 13.6 0.8 265.0 30.8 0.0 6.0
06-06-2022 157 31.0 16:54 7.5 4:30 20.9 71.8 36.3 15.1 0.9 221.2 30.8 0.0 5.9
05-06-2022 156 28.4 15:26 8.3 5:24 18.9 80.7 43.8 14.8 0.7 208.2 30.4 0.0 5.4
04-06-2022 155 24.8 14:02 7.7 5:46 17.5 89.6 55.0 30.4 0.9 283.6 30.4 0.0 5.2
03-06-2022 154 25.0 15:00 8.5 5:20 17.8 89.7 57.6 33.1 1.0 220.7 30.5 0.0 5.3
02-06-2022 153 25.4 11:56 10.1 2:24 18.5 80.6 52.8 36.8 1.0 268.0 20.5 0.0 4.1
01-06-2022 152 27.4 14:20 10.6 1:20 20.1 77.3 43.5 19.7 1.0 207.5 29.7 0.0 5.5
31-05-2022 151 28.2 14:38 6.9 4:40 18.6 86.8 43.9 18.2 0.7 205.3 30.4 0.0 5.3
30-05-2022 150 24.8 13:10 9.3 3:44 16.9 86.1 57.2 26.7 1.1 283.5 28.9 0.0 5.1
29-05-2022 149 27.8 13:24 10.7 00:16 20.4 74.3 40.2 12.9 1.3 258.8 27.4 0.0 5.6
28-05-2022 148 27.5 15:48 7.6 5:08 19.2 71.5 40.4 21.8 0.8 209.0 29.7 0.0 5.3
27-05-2022 147 24.9 13:50 6.1 5:16 16.9 92.7 49.2 25.5 0.9 209.1 29.8 0.0 5.1
26-05-2022 146 20.0 12:18 5.1 5:12 13.6 91.9 67.4 47.2 1.0 193.0 29.3 0.0 4.4
25-05-2022 145 20.8 11:40 8.5 --:-- 15.1 83.0 51.0 29.4 1.3 182.3 26.8 0.0 4.6
24-05-2022 144 24.1 13:42 10.5 4:56 18.2 82.8 47.8 21.6 1.4 315.3 29.9 0.0 5.5
23-05-2022 143 27.1 15:38 13.5 4:34 20.0 81.8 51.7 25.9 1.5 357.4 30.0 0.0 5.9
22-05-2022 142 29.1 13:54 15.3 22:04 21.9 70.3 39.2 16.4 1.0 278.9 23.4 0.0 5.1
21-05-2022 141 30.5 12:08 14.9 00:54 23.0 64.8 42.5 24.9 0.8 129.7 21.4 0.0 4.7
20-05-2022 140 32.2 14:18 12.6 1:16 22.1 81.7 46.5 19.4 0.6 181.5 23.9 0.0 4.8
19-05-2022 139 30.5 16:28 8.5 5:04 19.6 90.5 58.6 26.7 0.6 209.2 28.8 0.0 5.2
18-05-2022 138 26.5 10:54 8.4 4:38 18.7 88.6 58.2 33.0 0.7 184.7 28.9 0.0 5.0
17-05-2022 137 29.2 15:22 6.8 5:42 19.0 91.4 53.6 24.3 0.6 221.1 29.7 0.0 5.2
16-05-2022 136 25.9 16:06 6.9 5:26 17.5 96.7 58.5 28.2 0.7 244.7 29.6 0.0 4.9
15-05-2022 135 24.0 16:32 10.6 3:48 18.7 82.7 53.5 34.6 1.0 254.0 28.6 0.0 5.0
14-05-2022 134 26.5 13:04 9.1 3:04 19.0 86.6 52.2 34.0 0.8 244.6 28.4 0.0 5.0
13-05-2022 133 24.8 14:24 7.2 5:14 16.8 91.6 59.0 32.6 0.6 208.6 28.6 0.0 4.6
12-05-2022 132 22.5 15:38 6.7 3:48 16.3 83.0 51.4 24.4 0.8 216.1 25.8 0.0 4.3
11-05-2022 131 22.4 13:36 4.8 4:54 14.5 95.8 59.6 31.5 0.8 182.8 29.4 0.0 4.6
10-05-2022 130 20.5 14:00 7.0 5:34 14.6 82.6 56.4 37.9 0.9 201.0 29.2 0.0 4.5
09-05-2022 129 22.0 13:56 6.1 4:40 14.8 99.9 61.8 34.0 0.8 186.5 28.4 0.2 4.4
08-05-2022 128 22.0 15:46 5.6 5:02 14.6 99.7 70.2 38.5 0.7 168.5 27.5 0.0 4.2
07-05-2022 127 21.7 16:30 5.8 5:46 14.8 92.4 62.7 30.1 0.8 196.9 28.3 0.0 4.4
06-05-2022 126 21.6 14:12 4.2 4:26 14.5 100.0 63.1 35.0 0.9 332.7 24.8 0.2 4.0
05-05-2022 125 18.5 12:02 5.2 00:56 12.1 99.9 72.6 46.1 1.1 123.5 22.1 0.0 3.4
04-05-2022 124 14.6 15:02 5.4 23:18 10.0 100.0 87.5 58.1 0.6 61.2 10.1 14.2 1.8
03-05-2022 123 13.7 14:08 8.5 --:-- 10.6 93.5 82.9 62.6 0.5 181.3 9.2 4.6 1.7
02-05-2022 122 19.1 11:08 6.1 5:30 13.4 89.2 59.9 32.7 1.7 282.4 24.7 0.4 4.1
01-05-2022 121 22.8 15:08 4.6 5:22 14.9 97.9 61.9 38.1 0.8 265.8 22.0 0.0 3.7
30-04-2022 120 18.7 13:32 2.9 6:06 11.2 100.0 68.8 39.6 0.7 188.8 26.0 0.0 3.7
29-04-2022 119 17.3 12:22 4.9 5:44 10.9 99.9 81.9 52.7 0.8 138.2 20.8 0.2 3.0
28-04-2022 118 16.9 12:26 4.6 4:44 10.1 99.9 82.7 38.2 0.8 335.5 16.4 4.2 2.6
27-04-2022 117 16.3 9:40 6.0 5:02 10.3 95.0 81.1 54.8 0.7 182.9 17.0 3.0 2.6
26-04-2022 116 16.8 13:02 4.8 5:34 11.1 96.8 69.8 41.4 0.6 159.4 17.8 0.2 2.7
25-04-2022 115 17.7 13:58 2.2 5:26 10.8 97.6 74.0 50.1 0.8 177.3 26.0 0.0 3.5
24-04-2022 114 17.5 16:18 4.5 5:36 10.8 89.6 68.7 47.8 0.9 332.7 23.9 0.0 3.4
23-04-2022 113 11.5 11:42 4.7 2:54 7.4 90.0 80.1 59.9 2.2 274.2 10.6 10.8 1.9
22-04-2022 112 8.8 17:26 6.2 1:46 7.9 97.6 86.0 67.4 2.2 204.4 2.7 33.2 1.0
21-04-2022 111 13.9 15:28 4.2 6:14 9.4 75.1 56.7 35.9 1.9 314.8 24.3 0.0 3.6
20-04-2022 110 8.7 00:32 1.6 7:20 5.6 88.4 78.5 63.0 2.1 299.6 10.1 13.4 1.7
19-04-2022 109 18.5 11:24 6.3 5:32 12.0 95.2 71.0 46.4 1.5 268.4 21.5 0.8 3.4
18-04-2022 108 22.2 13:22 6.2 5:56 14.9 93.1 64.9 42.8 0.8 219.2 25.7 0.0 3.9
17-04-2022 107 24.0 15:04 7.7 6:12 17.4 81.6 50.5 28.3 0.8 349.6 26.7 0.0 4.3
16-04-2022 106 22.4 12:18 5.2 3:44 14.2 91.7 61.5 32.5 0.9 138.9 24.9 0.0 3.9
15-04-2022 105 18.5 13:06 5.8 5:40 12.1 89.4 66.9 38.3 1.1 163.5 23.1 0.0 3.5
14-04-2022 104 17.4 11:34 8.7 23:46 12.8 86.0 64.1 45.3 1.5 17.6 16.2 2.6 2.9
13-04-2022 103 15.0 15:14 7.0 00:08 10.7 88.5 67.4 47.6 1.9 354.5 16.8 0.6 2.8
12-04-2022 102 14.7 12:30 6.4 18:54 9.3 95.5 75.2 49.9 0.9 254.7 10.8 7.4 1.9
11-04-2022 101 16.1 15:18 7.2 1:28 12.5 77.6 62.6 40.4 1.3 200.9 21.0 0.0 3.3
10-04-2022 100 19.6 12:22 6.0 5:38 13.3 96.6 62.0 36.2 0.8 236.1 23.3 0.0 3.4
09-04-2022 99 20.9 14:44 5.4 4:32 13.7 89.0 63.5 40.3 1.0 285.4 23.5 0.0 3.6
08-04-2022 98 18.3 14:10 3.3 5:26 11.9 92.0 57.1 23.5 1.4 339.9 22.2 0.2 3.6
07-04-2022 97 16.7 15:28 1.2 5:58 10.3 95.1 63.5 29.9 1.2 0.7 21.7 0.0 3.2
06-04-2022 96 8.3 13:48 2.2 3:00 5.8 100.0 83.3 61.8 1.0 324.9 6.2 1.0 1.2
05-04-2022 95 7.5 12:32 2.3 21:18 4.9 96.9 90.5 76.2 0.6 262.9 4.5 9.2 0.9
04-04-2022 94 12.9 9:38 2.7 5:08 6.6 96.3 66.0 36.6 1.7 39.9 11.1 0.0 2.2
03-04-2022 93 10.3 12:16 0.7 6:14 5.9 94.3 75.1 47.2 1.0 199.0 13.6 0.0 1.9
02-04-2022 92 12.0 12:18 0.6 5:46 6.8 97.2 70.9 39.8 1.0 154.1 16.6 0.0 2.2
01-04-2022 91 12.2 14:28 5.8 23:58 8.7 91.7 69.1 45.3 1.7 1.3 10.8 0.0 2.0
31-03-2022 90 11.7 14:18 7.2 6:18 8.8 99.9 83.7 62.9 2.2 287.1 10.2 26.4 1.7
30-03-2022 89 13.2 13:30 7.8 17:16 10.2 99.9 86.4 64.1 1.5 286.4 7.5 7.8 1.5
29-03-2022 88 15.7 15:46 8.9 6:00 11.5 99.9 86.3 55.3 1.0 289.3 6.9 3.8 1.5
28-03-2022 87 13.7 16:48 7.4 00:46 10.3 99.9 88.8 66.1 1.2 175.2 11.9 0.0 1.8
27-03-2022 86 14.5 14:26 5.4 00:20 10.1 99.9 88.4 67.9 0.8 222.1 12.5 0.0 1.8
26-03-2022 85 12.8 16:36 5.3 3:34 8.8 99.9 90.2 66.1 0.6 186.2 7.4 0.2 1.3
25-03-2022 84 12.7 00:06 6.4 19:34 8.4 99.9 90.2 54.0 0.9 83.4 1.4 10.6 1.0
24-03-2022 83 14.8 12:00 9.1 21:24 11.8 88.0 65.2 48.1 3.5 65.4 3.9 3.6 2.2
23-03-2022 82 14.1 14:40 8.3 3:22 11.0 99.9 84.4 60.8 1.2 121.4 6.9 3.0 1.5
22-03-2022 81 13.3 11:34 3.7 2:52 8.6 100.0 91.7 70.2 0.6 221.7 10.3 3.0 1.5
21-03-2022 80 11.4 11:58 4.8 23:28 9.0 99.9 94.8 81.9 0.9 198.1 5.2 7.0 1.0
20-03-2022 79 14.9 14:18 6.1 6:00 10.1 99.9 87.2 68.8 1.0 215.5 15.4 4.6 2.0
19-03-2022 78 12.8 14:08 6.0 3:06 9.0 99.9 94.3 70.5 0.9 189.7 10.0 0.4 1.5
18-03-2022 77 12.8 12:58 4.1 5:30 8.6 99.9 86.5 58.4 0.7 171.5 8.5 1.6 1.4
17-03-2022 76 13.6 15:24 7.3 --:-- 10.4 99.9 73.9 59.7 2.1 29.6 8.8 1.0 1.7
16-03-2022 75 10.7 13:06 7.2 23:58 9.0 99.9 94.6 78.5 1.3 150.0 5.4 12.2 1.0
15-03-2022 74 14.3 16:34 7.5 6:32 10.0 99.9 85.4 39.0 1.1 40.8 1.8 26.4 1.3
14-03-2022 73 10.6 3:48 4.2 11:26 7.7 99.9 96.9 83.2 1.3 279.1 2.3 41.4 0.7
13-03-2022 72 15.8 14:18 7.9 1:16 10.7 99.9 83.0 47.8 0.8 193.4 13.8 2.2 2.0
12-03-2022 71 14.0 13:18 6.5 6:38 9.7 85.1 66.0 41.0 1.5 312.2 16.9 0.0 2.4
11-03-2022 70 12.4 12:14 1.4 4:04 7.3 100.0 90.6 59.6 0.9 206.0 5.6 17.8 1.2
10-03-2022 69 13.7 14:08 0.1 6:40 7.3 99.9 80.3 52.6 0.7 200.2 16.5 0.0 1.9
09-03-2022 68 14.0 14:06 -1.3 6:42 6.8 99.9 77.8 49.9 0.8 223.7 17.6 0.2 2.0
08-03-2022 67 12.6 15:50 1.7 23:34 7.8 94.6 75.1 52.0 1.2 294.0 11.6 0.0 1.7
07-03-2022 66 11.1 12:14 3.7 00:04 7.0 99.9 87.3 53.7 0.6 210.6 9.4 0.6 1.3
06-03-2022 65 11.9 11:58 0.3 6:08 5.8 99.9 86.0 51.9 0.6 190.5 11.9 0.0 1.5
05-03-2022 64 12.0 12:34 3.1 5:06 7.2 99.9 76.3 50.2 0.9 286.6 11.0 0.0 1.5
04-03-2022 63 9.3 14:56 3.8 1:38 6.4 96.5 82.9 69.8 2.4 330.8 13.6 18.2 1.5
03-03-2022 62 15.3 10:30 4.4 6:20 10.0 98.9 66.7 39.6 1.6 295.8 9.6 13.2 2.0
02-03-2022 61 17.5 14:20 -0.8 6:40 9.3 99.9 66.4 32.9 0.9 299.7 16.3 0.0 2.2
01-03-2022 60 15.0 13:52 0.0 6:20 7.6 100.0 74.6 41.8 0.7 198.0 15.7 0.2 1.8
28-02-2022 59 8.7 15:42 5.8 23:22 7.6 99.9 98.5 92.0 0.9 208.6 4.8 0.0 0.8
27-02-2022 58 11.4 11:02 7.5 7:06 8.9 100.0 96.5 77.7 0.8 156.0 5.5 0.4 1.0
26-02-2022 57 14.2 13:58 8.2 2:36 10.1 99.9 89.8 69.7 0.8 185.1 7.7 0.0 1.2
25-02-2022 56 13.0 10:20 8.9 23:58 10.5 99.9 95.3 74.6 0.7 193.7 7.5 0.2 1.2
24-02-2022 55 18.5 12:02 1.9 3:40 9.8 99.9 67.7 27.5 0.8 166.7 12.9 5.6 2.0
23-02-2022 54 17.1 14:08 3.2 7:56 9.9 73.6 48.6 19.1 0.8 241.9 13.3 0.0 2.0
22-02-2022 53 17.9 11:46 0.4 6:44 9.0 84.1 55.6 29.4 0.8 187.5 18.0 0.0 2.1
21-02-2022 52 18.3 16:10 4.7 7:50 11.0 100.0 67.4 22.8 0.8 200.6 16.9 0.0 2.1
20-02-2022 51 14.0 13:26 8.4 00:16 9.8 99.9 90.5 62.7 0.8 186.4 9.9 0.0 1.4
19-02-2022 50 14.9 15:36 4.0 5:12 9.8 97.3 77.4 51.7 1.0 343.8 10.7 0.0 1.5
18-02-2022 49 20.1 15:04 -0.2 6:04 10.2 83.4 55.4 23.6 1.0 244.7 17.3 0.0 2.4
17-02-2022 48 20.8 12:34 0.7 6:34 10.6 88.7 56.8 23.0 0.8 188.6 16.9 0.0 2.2
16-02-2022 47 18.1 13:24 -1.4 5:50 9.2 75.4 47.1 15.6 1.6 4.5 16.5 0.0 2.7
15-02-2022 46 15.6 14:00 -0.9 7:32 8.1 85.4 50.9 21.8 1.0 284.0 15.5 0.0 2.0
14-02-2022 45 12.4 14:38 5.3 --:-- 9.3 91.5 64.5 43.8 1.8 332.5 16.3 0.2 2.0
13-02-2022 44 14.0 14:40 5.8 00:34 8.5 99.9 85.6 56.3 0.9 224.6 12.2 0.0 1.4
12-02-2022 43 11.5 15:06 0.0 7:20 5.9 100.0 91.7 67.2 0.8 193.7 12.2 0.2 1.2
11-02-2022 42 17.4 12:00 0.5 7:24 7.9 100.0 83.1 23.9 0.7 124.0 12.5 0.2 1.6
10-02-2022 41 14.3 13:36 2.3 7:54 7.6 100.0 89.6 52.2 0.7 157.3 13.4 0.0 1.4
09-02-2022 40 11.8 15:40 3.3 6:24 7.6 99.9 82.0 64.7 1.0 217.9 14.6 0.0 1.4
08-02-2022 39 12.5 13:10 -1.0 6:54 6.5 99.9 85.6 53.3 0.8 203.6 13.6 0.2 1.3
07-02-2022 38 14.6 13:12 1.1 --:-- 8.5 100.0 82.4 47.6 0.6 185.4 14.7 0.0 1.4